sensor_id;sensor_type;location;lat;lon;timestamp;pressure;altitude;pressure_sealevel;temperature;humidity
72685;BME280;61365;52.162;4.500;2022-11-15T00:01:16;100758.91;;;5.97;100.00
72685;BME280;61365;52.162;4.500;2022-11-15T00:03:44;100757.22;;;5.99;100.00
72685;BME280;61365;52.162;4.500;2022-11-15T00:06:11;100752.13;;;6.05;100.00
72685;BME280;61365;52.162;4.500;2022-11-15T00:08:37;100751.03;;;5.94;100.00
72685;BME280;61365;52.162;4.500;2022-11-15T00:11:04;100757.97;;;5.93;100.00
72685;BME280;61365;52.162;4.500;2022-11-15T00:13:30;100763.28;;;5.98;100.00
72685;BME280;61365;52.162;4.500;2022-11-15T00:15:58;100751.09;;;5.98;100.00
72685;BME280;61365;52.162;4.500;2022-11-15T00:18:26;100754.75;;;6.05;100.00
72685;BME280;61365;52.162;4.500;2022-11-15T00:20:53;100751.00;;;5.91;100.00
72685;BME280;61365;52.162;4.500;2022-11-15T00:23:19;100745.88;;;5.97;100.00
72685;BME280;61365;52.162;4.500;2022-11-15T00:25:46;100747.06;;;6.14;100.00
72685;BME280;61365;52.162;4.500;2022-11-15T00:28:12;100742.59;;;6.07;100.00
72685;BME280;61365;52.162;4.500;2022-11-15T00:30:39;100744.84;;;5.87;100.00
72685;BME280;61365;52.162;4.500;2022-11-15T00:33:05;100735.41;;;5.95;100.00
72685;BME280;61365;52.162;4.500;2022-11-15T00:35:33;100735.63;;;6.06;100.00
72685;BME280;61365;52.162;4.500;2022-11-15T00:38:01;100726.97;;;6.07;100.00
72685;BME280;61365;52.162;4.500;2022-11-15T00:40:28;100737.47;;;6.12;100.00
72685;BME280;61365;52.162;4.500;2022-11-15T00:42:55;100735.59;;;6.03;100.00
72685;BME280;61365;52.162;4.500;2022-11-15T00:45:22;100719.19;;;6.09;100.00
72685;BME280;61365;52.162;4.500;2022-11-15T00:47:49;100724.50;;;6.15;100.00
72685;BME280;61365;52.162;4.500;2022-11-15T00:50:16;100726.25;;;6.18;100.00
72685;BME280;61365;52.162;4.500;2022-11-15T00:52:43;100715.78;;;6.13;100.00
72685;BME280;61365;52.162;4.500;2022-11-15T00:55:14;100710.53;;;6.10;100.00
72685;BME280;61365;52.162;4.500;2022-11-15T00:57:43;100724.47;;;6.13;100.00
72685;BME280;61365;52.162;4.500;2022-11-15T01:00:11;100721.09;;;6.22;100.00
72685;BME280;61365;52.162;4.500;2022-11-15T01:02:38;100721.03;;;6.16;100.00
72685;BME280;61365;52.162;4.500;2022-11-15T01:05:05;100715.03;;;6.22;100.00
72685;BME280;61365;52.162;4.500;2022-11-15T01:07:32;100710.63;;;6.16;100.00
72685;BME280;61365;52.162;4.500;2022-11-15T01:09:58;100717.59;;;6.17;100.00
72685;BME280;61365;52.162;4.500;2022-11-15T01:12:24;100708.97;;;6.23;100.00
72685;BME280;61365;52.162;4.500;2022-11-15T01:14:51;100705.41;;;6.16;100.00
72685;BME280;61365;52.162;4.500;2022-11-15T01:17:18;100698.56;;;6.24;100.00
72685;BME280;61365;52.162;4.500;2022-11-15T01:19:44;100695.91;;;6.21;100.00
72685;BME280;61365;52.162;4.500;2022-11-15T01:22:11;100699.50;;;6.31;100.00
72685;BME280;61365;52.162;4.500;2022-11-15T01:24:37;100692.72;;;6.42;100.00
72685;BME280;61365;52.162;4.500;2022-11-15T01:27:03;100690.09;;;6.39;100.00
72685;BME280;61365;52.162;4.500;2022-11-15T01:29:30;100686.53;;;6.34;100.00
72685;BME280;61365;52.162;4.500;2022-11-15T01:31:56;100683.16;;;6.40;100.00
72685;BME280;61365;52.162;4.500;2022-11-15T01:34:22;100681.41;;;6.39;100.00
72685;BME280;61365;52.162;4.500;2022-11-15T01:36:49;100681.44;;;6.42;100.00
72685;BME280;61365;52.162;4.500;2022-11-15T01:39:15;100685.00;;;6.49;100.00
72685;BME280;61365;52.162;4.500;2022-11-15T01:41:42;100680.78;;;6.58;100.00
72685;BME280;61365;52.162;4.500;2022-11-15T01:47:09;100677.16;;;6.47;100.00
72685;BME280;61365;52.162;4.500;2022-11-15T01:52:30;100667.69;;;6.54;100.00
72685;BME280;61365;52.162;4.500;2022-11-15T01:55:19;100663.34;;;6.53;100.00
72685;BME280;61365;52.162;4.500;2022-11-15T01:57:51;100661.69;;;6.59;100.00
72685;BME280;61365;52.162;4.500;2022-11-15T02:00:20;100663.38;;;6.57;100.00
72685;BME280;61365;52.162;4.500;2022-11-15T02:02:47;100661.72;;;6.64;100.00
72685;BME280;61365;52.162;4.500;2022-11-15T02:05:13;100657.50;;;6.74;100.00
72685;BME280;61365;52.162;4.500;2022-11-15T02:07:40;100658.44;;;6.78;100.00
72685;BME280;61365;52.162;4.500;2022-11-15T02:10:17;100644.53;;;6.82;100.00
72685;BME280;61365;52.162;4.500;2022-11-15T02:12:46;100641.84;;;6.72;100.00
72685;BME280;61365;52.162;4.500;2022-11-15T02:15:14;100633.19;;;6.78;100.00
72685;BME280;61365;52.162;4.500;2022-11-15T02:27:23;100624.63;;;6.90;100.00
72685;BME280;61365;52.162;4.500;2022-11-15T02:30:32;100609.84;;;6.89;100.00
72685;BME280;61365;52.162;4.500;2022-11-15T02:33:26;100614.31;;;6.99;100.00
72685;BME280;61365;52.162;4.500;2022-11-15T02:42:11;100608.22;;;7.00;100.00
72685;BME280;61365;52.162;4.500;2022-11-15T02:45:07;100603.09;;;7.08;100.00
72685;BME280;61365;52.162;4.500;2022-11-15T02:47:49;100603.09;;;7.10;100.00
72685;BME280;61365;52.162;4.500;2022-11-15T02:50:21;100607.44;;;7.09;100.00
72685;BME280;61365;52.162;4.500;2022-11-15T02:52:53;100604.94;;;7.18;100.00
72685;BME280;61365;52.162;4.500;2022-11-15T02:55:36;100603.19;;;7.17;100.00
72685;BME280;61365;52.162;4.500;2022-11-15T03:03:59;100592.75;;;7.20;100.00
72685;BME280;61365;52.162;4.500;2022-11-15T03:06:42;100593.63;;;7.22;100.00
72685;BME280;61365;52.162;4.500;2022-11-15T03:09:43;100591.03;;;7.22;100.00
72685;BME280;61365;52.162;4.500;2022-11-15T03:12:37;100593.69;;;7.27;100.00
72685;BME280;61365;52.162;4.500;2022-11-15T03:15:18;100591.09;;;7.29;100.00
72685;BME280;61365;52.162;4.500;2022-11-15T03:17:55;100585.88;;;7.29;100.00
72685;BME280;61365;52.162;4.500;2022-11-15T03:20:36;100583.28;;;7.32;100.00
72685;BME280;61365;52.162;4.500;2022-11-15T03:23:06;100580.72;;;7.38;100.00
72685;BME280;61365;52.162;4.500;2022-11-15T03:25:40;100570.28;;;7.38;100.00
72685;BME280;61365;52.162;4.500;2022-11-15T03:28:22;100580.75;;;7.44;100.00
72685;BME280;61365;52.162;4.500;2022-11-15T03:30:55;100588.59;;;7.44;100.00
72685;BME280;61365;52.162;4.500;2022-11-15T03:33:22;100589.50;;;7.48;100.00
72685;BME280;61365;52.162;4.500;2022-11-15T03:35:50;100583.41;;;7.50;100.00
72685;BME280;61365;52.162;4.500;2022-11-15T03:38:26;100584.31;;;7.57;100.00
72685;BME280;61365;52.162;4.500;2022-11-15T03:40:59;100590.47;;;7.62;100.00
72685;BME280;61365;52.162;4.500;2022-11-15T03:43:39;100578.34;;;7.69;100.00
72685;BME280;61365;52.162;4.500;2022-11-15T03:47:06;100579.22;;;7.70;100.00
72685;BME280;61365;52.162;4.500;2022-11-15T03:49:42;100572.31;;;7.84;100.00
72685;BME280;61365;52.162;4.500;2022-11-15T03:52:19;100575.88;;;7.95;100.00
72685;BME280;61365;52.162;4.500;2022-11-15T03:54:56;100568.88;;;7.91;100.00
72685;BME280;61365;52.162;4.500;2022-11-15T03:57:22;100579.34;;;7.93;100.00
72685;BME280;61365;52.162;4.500;2022-11-15T03:59:49;100577.59;;;7.95;100.00
72685;BME280;61365;52.162;4.500;2022-11-15T04:02:16;100575.84;;;7.92;100.00
72685;BME280;61365;52.162;4.500;2022-11-15T04:04:42;100580.19;;;7.87;100.00
72685;BME280;61365;52.162;4.500;2022-11-15T04:07:09;100575.88;;;7.94;100.00
72685;BME280;61365;52.162;4.500;2022-11-15T04:09:35;100576.78;;;8.02;100.00
72685;BME280;61365;52.162;4.500;2022-11-15T04:12:24;100569.81;;;8.04;100.00
72685;BME280;61365;52.162;4.500;2022-11-15T04:15:04;100575.06;;;8.03;100.00
72685;BME280;61365;52.162;4.500;2022-11-15T04:17:47;100569.00;;;8.13;100.00
72685;BME280;61365;52.162;4.500;2022-11-15T04:23:12;100571.66;;;8.22;100.00
72685;BME280;61365;52.162;4.500;2022-11-15T04:26:32;100562.97;;;8.28;100.00
72685;BME280;61365;52.162;4.500;2022-11-15T04:28:59;100553.44;;;8.39;100.00
72685;BME280;61365;52.162;4.500;2022-11-15T04:31:44;100556.03;;;8.38;100.00
72685;BME280;61365;52.162;4.500;2022-11-15T04:34:10;100564.72;;;8.37;100.00
72685;BME280;61365;52.162;4.500;2022-11-15T04:36:36;100562.13;;;8.38;100.00
72685;BME280;61365;52.162;4.500;2022-11-15T04:39:21;100563.03;;;8.45;100.00
72685;BME280;61365;52.162;4.500;2022-11-15T04:41:47;100564.81;;;8.54;100.00
72685;BME280;61365;52.162;4.500;2022-11-15T04:44:13;100564.00;;;8.64;100.00
72685;BME280;61365;52.162;4.500;2022-11-15T04:46:40;100560.50;;;8.73;100.00
72685;BME280;61365;52.162;4.500;2022-11-15T04:49:06;100542.22;;;8.79;100.00
72685;BME280;61365;52.162;4.500;2022-11-15T04:51:32;100547.44;;;8.85;100.00
72685;BME280;61365;52.162;4.500;2022-11-15T04:53:59;100549.19;;;8.93;100.00
72685;BME280;61365;52.162;4.500;2022-11-15T04:56:25;100562.31;;;8.94;100.00
72685;BME280;61365;52.162;4.500;2022-11-15T04:58:51;100562.28;;;8.93;100.00
72685;BME280;61365;52.162;4.500;2022-11-15T05:01:18;100562.28;;;9.00;100.00
72685;BME280;61365;52.162;4.500;2022-11-15T05:03:44;100555.31;;;8.99;100.00
72685;BME280;61365;52.162;4.500;2022-11-15T05:06:30;100565.81;;;9.04;100.00
72685;BME280;61365;52.162;4.500;2022-11-15T05:08:56;100564.91;;;9.11;100.00
72685;BME280;61365;52.162;4.500;2022-11-15T05:11:23;100570.16;;;9.18;100.00
72685;BME280;61365;52.162;4.500;2022-11-15T05:13:50;100578.88;;;9.21;100.00
72685;BME280;61365;52.162;4.500;2022-11-15T05:16:16;100571.91;;;9.28;100.00
72685;BME280;61365;52.162;4.500;2022-11-15T05:18:43;100570.16;;;9.31;100.00
72685;BME280;61365;52.162;4.500;2022-11-15T05:21:12;100566.66;;;9.37;100.00
72685;BME280;61365;52.162;4.500;2022-11-15T05:23:40;100566.66;;;9.40;100.00
72685;BME280;61365;52.162;4.500;2022-11-15T05:26:08;100565.78;;;9.41;100.00
72685;BME280;61365;52.162;4.500;2022-11-15T05:28:36;100576.28;;;9.43;100.00
72685;BME280;61365;52.162;4.500;2022-11-15T05:31:05;100571.03;;;9.48;100.00
72685;BME280;61365;52.162;4.500;2022-11-15T05:33:36;100580.63;;;9.52;100.00
72685;BME280;61365;52.162;4.500;2022-11-15T05:36:11;100578.03;;;9.52;100.00
72685;BME280;61365;52.162;4.500;2022-11-15T05:38:44;100583.22;;;9.61;100.00
72685;BME280;61365;52.162;4.500;2022-11-15T05:41:12;100586.75;;;9.58;100.00
72685;BME280;61365;52.162;4.500;2022-11-15T05:43:40;100591.97;;;9.58;100.00
72685;BME280;61365;52.162;4.500;2022-11-15T05:46:09;100591.09;;;9.59;100.00
72685;BME280;61365;52.162;4.500;2022-11-15T05:48:37;100584.09;;;9.60;100.00
72685;BME280;61365;52.162;4.500;2022-11-15T05:51:09;100589.34;;;9.61;100.00
72685;BME280;61365;52.162;4.500;2022-11-15T05:53:36;100589.38;;;9.57;100.00
72685;BME280;61365;52.162;4.500;2022-11-15T05:56:04;100591.97;;;9.71;100.00
72685;BME280;61365;52.162;4.500;2022-11-15T05:58:32;100586.75;;;9.68;100.00
72685;BME280;61365;52.162;4.500;2022-11-15T06:01:00;100578.00;;;9.70;100.00
72685;BME280;61365;52.162;4.500;2022-11-15T06:03:27;100581.47;;;9.69;100.00
72685;BME280;61365;52.162;4.500;2022-11-15T06:05:53;100576.25;;;9.68;100.00
72685;BME280;61365;52.162;4.500;2022-11-15T06:08:20;100591.09;;;9.64;100.00
72685;BME280;61365;52.162;4.500;2022-11-15T06:10:46;100593.72;;;9.61;99.96
72685;BME280;61365;52.162;4.500;2022-11-15T06:13:12;100598.09;;;9.53;100.00
72685;BME280;61365;52.162;4.500;2022-11-15T06:15:39;100594.63;;;9.54;100.00
72685;BME280;61365;52.162;4.500;2022-11-15T06:18:05;100594.59;;;9.48;100.00
72685;BME280;61365;52.162;4.500;2022-11-15T06:20:31;100601.56;;;9.50;100.00
72685;BME280;61365;52.162;4.500;2022-11-15T06:22:59;100599.81;;;9.49;100.00
72685;BME280;61365;52.162;4.500;2022-11-15T06:25:27;100594.59;;;9.44;99.48
72685;BME280;61365;52.162;4.500;2022-11-15T06:27:56;100598.97;;;9.41;99.60
72685;BME280;61365;52.162;4.500;2022-11-15T06:30:25;100602.44;;;9.49;99.67
72685;BME280;61365;52.162;4.500;2022-11-15T06:32:59;100602.47;;;9.40;98.99
72685;BME280;61365;52.162;4.500;2022-11-15T06:35:27;100600.72;;;9.42;99.20
72685;BME280;61365;52.162;4.500;2022-11-15T06:37:55;100593.75;;;9.38;98.65
72685;BME280;61365;52.162;4.500;2022-11-15T06:40:21;100585.00;;;9.31;98.37
72685;BME280;61365;52.162;4.500;2022-11-15T06:42:48;100595.47;;;9.26;98.23
72685;BME280;61365;52.162;4.500;2022-11-15T06:45:14;100608.56;;;9.22;98.46
72685;BME280;61365;52.162;4.500;2022-11-15T06:47:46;100619.03;;;9.15;98.50
72685;BME280;61365;52.162;4.500;2022-11-15T06:50:13;100613.81;;;9.17;98.33
72685;BME280;61365;52.162;4.500;2022-11-15T06:52:40;100620.75;;;9.13;98.06
72685;BME280;61365;52.162;4.500;2022-11-15T06:55:07;100629.47;;;9.09;97.95
72685;BME280;61365;52.162;4.500;2022-11-15T06:57:34;100631.22;;;9.02;98.16
72685;BME280;61365;52.162;4.500;2022-11-15T07:00:05;100632.09;;;9.03;97.99
72685;BME280;61365;52.162;4.500;2022-11-15T07:02:32;100625.97;;;8.98;97.73
72685;BME280;61365;52.162;4.500;2022-11-15T07:04:59;100621.63;;;8.95;97.98
72685;BME280;61365;52.162;4.500;2022-11-15T07:07:25;100620.75;;;8.90;97.80
72685;BME280;61365;52.162;4.500;2022-11-15T07:09:51;100626.84;;;8.97;97.83
72685;BME280;61365;52.162;4.500;2022-11-15T07:12:18;100623.38;;;8.93;97.64
72685;BME280;61365;52.162;4.500;2022-11-15T07:14:44;100617.25;;;8.93;97.62
72685;BME280;61365;52.162;4.500;2022-11-15T07:17:10;100625.09;;;8.93;97.82
72685;BME280;61365;52.162;4.500;2022-11-15T07:19:36;100619.00;;;8.98;97.64
72685;BME280;61365;52.162;4.500;2022-11-15T07:22:03;100625.97;;;8.98;97.33
72685;BME280;61365;52.162;4.500;2022-11-15T07:24:29;100625.13;;;9.07;97.21
72685;BME280;61365;52.162;4.500;2022-11-15T07:26:56;100624.25;;;9.03;96.97
72685;BME280;61365;52.162;4.500;2022-11-15T07:29:22;100619.91;;;9.10;97.24
72685;BME280;61365;52.162;4.500;2022-11-15T07:31:49;100622.50;;;9.07;96.63
72685;BME280;61365;52.162;4.500;2022-11-15T07:34:16;100612.94;;;9.07;96.74
72685;BME280;61365;52.162;4.500;2022-11-15T07:36:42;100619.88;;;9.07;96.92
72685;BME280;61365;52.162;4.500;2022-11-15T07:39:09;100614.66;;;9.02;97.05
72685;BME280;61365;52.162;4.500;2022-11-15T07:41:35;100613.78;;;9.08;97.05
72685;BME280;61365;52.162;4.500;2022-11-15T07:44:02;100607.69;;;9.09;96.93
72685;BME280;61365;52.162;4.500;2022-11-15T07:46:28;100609.44;;;9.10;96.75
72685;BME280;61365;52.162;4.500;2022-11-15T07:48:54;100615.56;;;9.18;96.36
72685;BME280;61365;52.162;4.500;2022-11-15T07:51:21;100613.81;;;9.14;96.39
72685;BME280;61365;52.162;4.500;2022-11-15T07:53:47;100608.56;;;9.14;96.56
72685;BME280;61365;52.162;4.500;2022-11-15T07:56:13;100602.44;;;9.16;96.47
72685;BME280;61365;52.162;4.500;2022-11-15T07:58:40;100595.47;;;9.25;95.38
72685;BME280;61365;52.162;4.500;2022-11-15T08:01:09;100594.59;;;9.23;95.30
72685;BME280;61365;52.162;4.500;2022-11-15T08:03:36;100585.84;;;9.22;95.18
72685;BME280;61365;52.162;4.500;2022-11-15T08:06:03;100585.00;;;9.19;95.28
72685;BME280;61365;52.162;4.500;2022-11-15T08:08:29;100587.63;;;9.22;94.68
72685;BME280;61365;52.162;4.500;2022-11-15T08:10:58;100587.63;;;9.45;93.99
72685;BME280;61365;52.162;4.500;2022-11-15T08:13:24;100587.63;;;9.53;93.77
72685;BME280;61365;52.162;4.500;2022-11-15T08:15:50;100593.72;;;9.61;92.12
72685;BME280;61365;52.162;4.500;2022-11-15T08:18:17;100590.25;;;9.53;92.37
72685;BME280;61365;52.162;4.500;2022-11-15T08:20:43;100591.09;;;9.67;91.90
72685;BME280;61365;52.162;4.500;2022-11-15T08:23:11;100585.81;;;9.81;90.64
72685;BME280;61365;52.162;4.500;2022-11-15T08:25:39;100569.25;;;9.81;91.30
72685;BME280;61365;52.162;4.500;2022-11-15T08:28:07;100562.25;;;9.84;90.69
72685;BME280;61365;52.162;4.500;2022-11-15T08:30:38;100564.84;;;9.94;90.23
72685;BME280;61365;52.162;4.500;2022-11-15T08:33:11;100572.66;;;10.00;90.40
72685;BME280;61365;52.162;4.500;2022-11-15T08:35:40;100564.75;;;10.11;89.69
72685;BME280;61365;52.162;4.500;2022-11-15T08:38:08;100563.94;;;10.09;89.50
72685;BME280;61365;52.162;4.500;2022-11-15T08:40:35;100555.09;;;10.30;88.67
72685;BME280;61365;52.162;4.500;2022-11-15T08:43:02;100560.38;;;10.20;88.83
72685;BME280;61365;52.162;4.500;2022-11-15T08:45:30;100559.50;;;10.17;88.81
72685;BME280;61365;52.162;4.500;2022-11-15T08:47:57;100559.47;;;10.21;89.08
72685;BME280;61365;52.162;4.500;2022-11-15T08:50:26;100554.28;;;10.18;89.29
72685;BME280;61365;52.162;4.500;2022-11-15T08:52:52;100562.13;;;10.17;88.94
72685;BME280;61365;52.162;4.500;2022-11-15T08:55:18;100559.50;;;10.20;88.96
72685;BME280;61365;52.162;4.500;2022-11-15T08:57:45;100557.78;;;10.11;89.52
72685;BME280;61365;52.162;4.500;2022-11-15T09:00:12;100549.84;;;10.27;89.26
72685;BME280;61365;52.162;4.500;2022-11-15T09:02:39;100548.06;;;10.36;88.70
72685;BME280;61365;52.162;4.500;2022-11-15T09:05:07;100558.56;;;10.44;88.55
72685;BME280;61365;52.162;4.500;2022-11-15T09:07:34;100546.28;;;10.49;88.31
72685;BME280;61365;52.162;4.500;2022-11-15T09:10:00;100543.63;;;10.57;87.51
72685;BME280;61365;52.162;4.500;2022-11-15T09:12:26;100552.25;;;10.76;86.95
72685;BME280;61365;52.162;4.500;2022-11-15T09:14:53;100553.13;;;10.75;86.34
72685;BME280;61365;52.162;4.500;2022-11-15T09:17:19;100554.94;;;10.70;86.32
72685;BME280;61365;52.162;4.500;2022-11-15T09:19:46;100550.50;;;10.75;86.23
72685;BME280;61365;52.162;4.500;2022-11-15T09:22:12;100548.53;;;11.08;85.06
72685;BME280;61365;52.162;4.500;2022-11-15T09:24:38;100559.16;;;10.93;83.91
72685;BME280;61365;52.162;4.500;2022-11-15T09:27:05;100545.06;;;11.03;83.14
72685;BME280;61365;52.162;4.500;2022-11-15T09:29:31;100552.22;;;10.84;84.08
72685;BME280;61365;52.162;4.500;2022-11-15T09:31:57;100546.97;;;10.79;83.67
72685;BME280;61365;52.162;4.500;2022-11-15T09:34:24;100555.75;;;10.72;82.99
72685;BME280;61365;52.162;4.500;2022-11-15T09:36:50;100555.66;;;10.91;83.04
72685;BME280;61365;52.162;4.500;2022-11-15T09:39:16;100560.03;;;10.90;83.22
72685;BME280;61365;52.162;4.500;2022-11-15T09:50:12;100554.69;;;11.04;81.91
72685;BME280;61365;52.162;4.500;2022-11-15T09:52:44;100545.97;;;11.01;81.87
72685;BME280;61365;52.162;4.500;2022-11-15T09:55:13;100540.00;;;10.77;82.76
72685;BME280;61365;52.162;4.500;2022-11-15T09:58:03;100529.50;;;10.77;83.15
72685;BME280;61365;52.162;4.500;2022-11-15T10:00:44;100528.53;;;10.89;82.80
72685;BME280;61365;52.162;4.500;2022-11-15T10:03:26;100517.19;;;10.85;81.92
72685;BME280;61365;52.162;4.500;2022-11-15T10:06:04;100523.16;;;11.07;81.69
72685;BME280;61365;52.162;4.500;2022-11-15T10:08:46;100504.88;;;10.93;81.68
72685;BME280;61365;52.162;4.500;2022-11-15T10:11:23;100495.34;;;10.83;82.52
72685;BME280;61365;52.162;4.500;2022-11-15T10:13:57;100489.03;;;11.04;82.15
72685;BME280;61365;52.162;4.500;2022-11-15T10:22:35;100486.19;;;11.31;80.92
72685;BME280;61365;52.162;4.500;2022-11-15T10:27:42;100483.53;;;11.32;79.95
72685;BME280;61365;52.162;4.500;2022-11-15T10:30:13;100486.97;;;11.39;78.98
72685;BME280;61365;52.162;4.500;2022-11-15T10:32:42;100478.22;;;11.38;79.56
72685;BME280;61365;52.162;4.500;2022-11-15T10:35:28;100474.50;;;11.60;78.90
72685;BME280;61365;52.162;4.500;2022-11-15T10:38:08;100473.81;;;11.39;79.70
72685;BME280;61365;52.162;4.500;2022-11-15T10:40:38;100466.88;;;11.35;79.16
72685;BME280;61365;52.162;4.500;2022-11-15T10:43:17;100457.22;;;11.35;79.31
72685;BME280;61365;52.162;4.500;2022-11-15T10:45:46;100444.91;;;11.40;78.98
72685;BME280;61365;52.162;4.500;2022-11-15T10:50:44;100441.44;;;11.37;79.46
72685;BME280;61365;52.162;4.500;2022-11-15T10:53:22;100441.41;;;11.40;79.14
72685;BME280;61365;52.162;4.500;2022-11-15T10:55:52;100444.19;;;11.27;79.30
72685;BME280;61365;52.162;4.500;2022-11-15T10:58:39;100445.03;;;11.28;79.69
72685;BME280;61365;52.162;4.500;2022-11-15T11:01:20;100442.50;;;11.22;79.45
72685;BME280;61365;52.162;4.500;2022-11-15T11:04:00;100443.28;;;11.27;79.67
72685;BME280;61365;52.162;4.500;2022-11-15T11:06:29;100440.81;;;11.15;78.98
72685;BME280;61365;52.162;4.500;2022-11-15T11:09:09;100445.25;;;11.08;79.63
72685;BME280;61365;52.162;4.500;2022-11-15T11:11:50;100443.47;;;11.11;79.48
72685;BME280;61365;52.162;4.500;2022-11-15T11:14:44;100432.88;;;11.19;78.97
72685;BME280;61365;52.162;4.500;2022-11-15T11:17:32;100435.59;;;11.08;79.07
72685;BME280;61365;52.162;4.500;2022-11-15T11:48:42;100377.75;;;11.18;78.65
72685;BME280;61365;52.162;4.500;2022-11-15T11:51:39;100376.91;;;11.16;78.88
72685;BME280;61365;52.162;4.500;2022-11-15T11:54:14;100370.72;;;11.18;78.59
72685;BME280;61365;52.162;4.500;2022-11-15T11:56:48;100359.41;;;11.15;77.88
72685;BME280;61365;52.162;4.500;2022-11-15T12:02:16;100342.63;;;11.26;78.32
72685;BME280;61365;52.162;4.500;2022-11-15T12:04:54;100342.69;;;11.20;78.26
72685;BME280;61365;52.162;4.500;2022-11-15T12:07:33;100349.69;;;11.21;77.23
72685;BME280;61365;52.162;4.500;2022-11-15T12:10:12;100329.63;;;11.16;77.61
72685;BME280;61365;52.162;4.500;2022-11-15T12:13:06;100329.28;;;11.44;76.38
72685;BME280;61365;52.162;4.500;2022-11-15T12:15:43;100319.75;;;11.36;76.70
72685;BME280;61365;52.162;4.500;2022-11-15T12:18:16;100308.47;;;11.25;77.18
72685;BME280;61365;52.162;4.500;2022-11-15T12:20:53;100305.00;;;11.23;76.76
72685;BME280;61365;52.162;4.500;2022-11-15T12:23:32;100301.31;;;11.39;75.62
72685;BME280;61365;52.162;4.500;2022-11-15T12:26:17;100312.00;;;11.24;76.28
72685;BME280;61365;52.162;4.500;2022-11-15T12:28:55;100295.34;;;11.25;77.09
72685;BME280;61365;52.162;4.500;2022-11-15T12:31:37;100299.56;;;11.38;76.77
72685;BME280;61365;52.162;4.500;2022-11-15T12:36:48;100289.91;;;11.39;76.24
72685;BME280;61365;52.162;4.500;2022-11-15T12:39:17;100274.63;;;11.70;74.96
72685;BME280;61365;52.162;4.500;2022-11-15T12:59:56;100244.00;;;11.65;75.08
72685;BME280;61365;52.162;4.500;2022-11-15T13:17:50;100211.66;;;11.61;73.41
72685;BME280;61365;52.162;4.500;2022-11-15T13:20:29;100219.56;;;11.61;73.96
72685;BME280;61365;52.162;4.500;2022-11-15T13:31:21;100203.03;;;11.53;73.89
72685;BME280;61365;52.162;4.500;2022-11-15T13:33:52;100209.34;;;11.41;74.39
72685;BME280;61365;52.162;4.500;2022-11-15T13:36:26;100190.91;;;11.46;75.30
72685;BME280;61365;52.162;4.500;2022-11-15T13:39:04;100177.84;;;11.38;74.47
72685;BME280;61365;52.162;4.500;2022-11-15T13:41:51;100181.53;;;11.26;74.03
72685;BME280;61365;52.162;4.500;2022-11-15T13:44:24;100167.50;;;11.27;74.86
72685;BME280;61365;52.162;4.500;2022-11-15T13:49:41;100166.63;;;11.28;74.86
72685;BME280;61365;52.162;4.500;2022-11-15T13:52:11;100165.75;;;11.27;74.17
72685;BME280;61365;52.162;4.500;2022-11-15T13:57:31;100147.47;;;11.21;73.94
72685;BME280;61365;52.162;4.500;2022-11-15T14:00:05;100138.59;;;11.29;73.67
72685;BME280;61365;52.162;4.500;2022-11-15T14:03:27;100152.63;;;11.26;73.75
72685;BME280;61365;52.162;4.500;2022-11-15T14:06:14;100135.19;;;11.23;72.72
72685;BME280;61365;52.162;4.500;2022-11-15T14:09:03;100133.41;;;11.24;72.73
72685;BME280;61365;52.162;4.500;2022-11-15T14:11:30;100122.94;;;11.22;73.43
72685;BME280;61365;52.162;4.500;2022-11-15T14:16:39;100105.34;;;11.26;72.19
72685;BME280;61365;52.162;4.500;2022-11-15T14:19:12;100107.25;;;11.16;71.61
72685;BME280;61365;52.162;4.500;2022-11-15T14:22:19;100094.13;;;11.16;71.71
72685;BME280;61365;52.162;4.500;2022-11-15T14:25:18;100092.94;;;11.36;72.11
72685;BME280;61365;52.162;4.500;2022-11-15T14:28:11;100092.34;;;11.18;72.49
72685;BME280;61365;52.162;4.500;2022-11-15T14:30:55;100090.53;;;11.23;72.45
72685;BME280;61365;52.162;4.500;2022-11-15T14:33:30;100080.13;;;11.17;72.85
72685;BME280;61365;52.162;4.500;2022-11-15T14:36:10;100074.16;;;11.07;73.37
72685;BME280;61365;52.162;4.500;2022-11-15T14:38:38;100074.88;;;11.17;73.24
72685;BME280;61365;52.162;4.500;2022-11-15T14:41:05;100071.44;;;11.14;74.26
72685;BME280;61365;52.162;4.500;2022-11-15T14:43:46;100060.94;;;11.12;73.81
72685;BME280;61365;52.162;4.500;2022-11-15T14:46:12;100063.47;;;11.20;73.57
72685;BME280;61365;52.162;4.500;2022-11-15T14:48:39;100062.63;;;11.16;73.64
72685;BME280;61365;52.162;4.500;2022-11-15T14:51:13;100050.47;;;11.10;73.35
72685;BME280;61365;52.162;4.500;2022-11-15T14:53:42;100056.56;;;11.13;73.59
72685;BME280;61365;52.162;4.500;2022-11-15T14:56:10;100046.78;;;11.22;72.96
72685;BME280;61365;52.162;4.500;2022-11-15T14:58:37;100047.66;;;11.21;73.69
72685;BME280;61365;52.162;4.500;2022-11-15T15:01:24;100040.91;;;11.08;73.83
72685;BME280;61365;52.162;4.500;2022-11-15T15:03:52;100041.47;;;11.25;74.15
72685;BME280;61365;52.162;4.500;2022-11-15T15:06:24;100040.00;;;11.07;74.02
72685;BME280;61365;52.162;4.500;2022-11-15T15:08:51;100033.69;;;11.19;73.22
72685;BME280;61365;52.162;4.500;2022-11-15T15:11:25;100028.22;;;11.33;72.96
72685;BME280;61365;52.162;4.500;2022-11-15T15:13:54;100025.94;;;11.11;73.50
72685;BME280;61365;52.162;4.500;2022-11-15T15:16:23;100020.75;;;11.08;74.70
72685;BME280;61365;52.162;4.500;2022-11-15T15:18:50;100023.19;;;11.19;73.71
72685;BME280;61365;52.162;4.500;2022-11-15T15:21:21;100017.94;;;11.21;73.87
72685;BME280;61365;52.162;4.500;2022-11-15T15:23:50;100019.00;;;11.07;74.65
72685;BME280;61365;52.162;4.500;2022-11-15T15:26:17;100011.94;;;11.13;74.44
72685;BME280;61365;52.162;4.500;2022-11-15T15:28:43;100014.41;;;11.22;75.14
72685;BME280;61365;52.162;4.500;2022-11-15T15:31:10;100012.72;;;11.16;74.38